sensor_id;sensor_type;location;lat;lon;timestamp;P1;durP1;ratioP1;P2;durP2;ratioP2
17985;SDS011;9118;48.122;11.546;2023-08-01T00:01:36;4.70;;;3.35;;
17985;SDS011;9118;48.122;11.546;2023-08-01T00:04:04;4.13;;;3.40;;
17985;SDS011;9118;48.122;11.546;2023-08-01T00:06:31;4.35;;;3.42;;
17985;SDS011;9118;48.122;11.546;2023-08-01T00:08:58;3.10;;;2.80;;
17985;SDS011;9118;48.122;11.546;2023-08-01T00:11:26;3.72;;;3.25;;
17985;SDS011;9118;48.122;11.546;2023-08-01T00:13:53;3.50;;;3.20;;
17985;SDS011;9118;48.122;11.546;2023-08-01T00:16:20;3.60;;;3.30;;
17985;SDS011;9118;48.122;11.546;2023-08-01T00:18:47;3.53;;;3.22;;
17985;SDS011;9118;48.122;11.546;2023-08-01T00:21:16;4.55;;;3.10;;
17985;SDS011;9118;48.122;11.546;2023-08-01T00:23:43;5.07;;;3.47;;
17985;SDS011;9118;48.122;11.546;2023-08-01T00:26:10;4.63;;;3.67;;
17985;SDS011;9118;48.122;11.546;2023-08-01T00:28:37;6.03;;;3.40;;
17985;SDS011;9118;48.122;11.546;2023-08-01T00:31:04;3.38;;;3.08;;
17985;SDS011;9118;48.122;11.546;2023-08-01T00:33:33;3.67;;;2.85;;
17985;SDS011;9118;48.122;11.546;2023-08-01T00:36:01;4.43;;;3.50;;
17985;SDS011;9118;48.122;11.546;2023-08-01T00:38:29;4.32;;;3.20;;
17985;SDS011;9118;48.122;11.546;2023-08-01T00:40:56;3.65;;;3.35;;
17985;SDS011;9118;48.122;11.546;2023-08-01T00:43:23;3.35;;;3.03;;
17985;SDS011;9118;48.122;11.546;2023-08-01T00:45:50;5.05;;;3.50;;
17985;SDS011;9118;48.122;11.546;2023-08-01T00:48:24;4.10;;;3.40;;
17985;SDS011;9118;48.122;11.546;2023-08-01T00:50:51;4.20;;;3.13;;
17985;SDS011;9118;48.122;11.546;2023-08-01T00:53:19;3.97;;;3.40;;
17985;SDS011;9118;48.122;11.546;2023-08-01T00:55:47;4.88;;;3.60;;
17985;SDS011;9118;48.122;11.546;2023-08-01T00:58:17;4.00;;;3.60;;
17985;SDS011;9118;48.122;11.546;2023-08-01T01:00:44;6.20;;;3.47;;
17985;SDS011;9118;48.122;11.546;2023-08-01T01:03:12;4.95;;;3.60;;
17985;SDS011;9118;48.122;11.546;2023-08-01T01:05:40;4.90;;;3.60;;
17985;SDS011;9118;48.122;11.546;2023-08-01T01:08:13;3.83;;;3.43;;
17985;SDS011;9118;48.122;11.546;2023-08-01T01:10:41;4.05;;;3.65;;
17985;SDS011;9118;48.122;11.546;2023-08-01T01:13:09;4.67;;;3.27;;
17985;SDS011;9118;48.122;11.546;2023-08-01T01:15:36;3.90;;;3.47;;
17985;SDS011;9118;48.122;11.546;2023-08-01T01:18:03;4.13;;;3.20;;
17985;SDS011;9118;48.122;11.546;2023-08-01T01:20:34;4.53;;;3.88;;
17985;SDS011;9118;48.122;11.546;2023-08-01T01:23:03;4.53;;;3.47;;
17985;SDS011;9118;48.122;11.546;2023-08-01T01:25:31;3.97;;;3.50;;
17985;SDS011;9118;48.122;11.546;2023-08-01T01:27:59;4.10;;;3.60;;
17985;SDS011;9118;48.122;11.546;2023-08-01T01:30:30;6.28;;;3.50;;
17985;SDS011;9118;48.122;11.546;2023-08-01T01:32:58;4.63;;;3.00;;
17985;SDS011;9118;48.122;11.546;2023-08-01T01:35:27;5.45;;;3.85;;
17985;SDS011;9118;48.122;11.546;2023-08-01T01:37:55;4.55;;;3.22;;
17985;SDS011;9118;48.122;11.546;2023-08-01T01:40:23;3.72;;;3.30;;
17985;SDS011;9118;48.122;11.546;2023-08-01T01:42:51;6.18;;;3.53;;
17985;SDS011;9118;48.122;11.546;2023-08-01T01:45:18;6.53;;;3.90;;
17985;SDS011;9118;48.122;11.546;2023-08-01T01:47:45;3.60;;;3.30;;
17985;SDS011;9118;48.122;11.546;2023-08-01T01:50:12;3.93;;;3.53;;
17985;SDS011;9118;48.122;11.546;2023-08-01T01:52:39;5.78;;;3.70;;
17985;SDS011;9118;48.122;11.546;2023-08-01T01:55:09;4.05;;;3.65;;
17985;SDS011;9118;48.122;11.546;2023-08-01T01:57:36;3.83;;;3.28;;
17985;SDS011;9118;48.122;11.546;2023-08-01T02:00:03;3.38;;;3.08;;
17985;SDS011;9118;48.122;11.546;2023-08-01T02:02:35;4.05;;;3.35;;
17985;SDS011;9118;48.122;11.546;2023-08-01T02:05:02;4.37;;;3.40;;
17985;SDS011;9118;48.122;11.546;2023-08-01T02:07:30;4.10;;;3.30;;
17985;SDS011;9118;48.122;11.546;2023-08-01T02:09:58;5.13;;;3.42;;
17985;SDS011;9118;48.122;11.546;2023-08-01T02:12:30;3.47;;;3.17;;
17985;SDS011;9118;48.122;11.546;2023-08-01T02:14:57;4.10;;;3.70;;
17985;SDS011;9118;48.122;11.546;2023-08-01T02:17:24;4.23;;;3.53;;
17985;SDS011;9118;48.122;11.546;2023-08-01T02:19:51;4.68;;;3.58;;
17985;SDS011;9118;48.122;11.546;2023-08-01T02:22:24;4.65;;;3.50;;
17985;SDS011;9118;48.122;11.546;2023-08-01T02:24:51;4.45;;;3.70;;
17985;SDS011;9118;48.122;11.546;2023-08-01T02:27:19;4.47;;;3.78;;
17985;SDS011;9118;48.122;11.546;2023-08-01T02:29:47;5.03;;;3.45;;
17985;SDS011;9118;48.122;11.546;2023-08-01T02:32:15;6.00;;;3.40;;
17985;SDS011;9118;48.122;11.546;2023-08-01T02:34:42;3.72;;;3.33;;
17985;SDS011;9118;48.122;11.546;2023-08-01T02:37:09;7.10;;;3.53;;
17985;SDS011;9118;48.122;11.546;2023-08-01T02:39:36;4.87;;;3.47;;
17985;SDS011;9118;48.122;11.546;2023-08-01T02:42:03;4.80;;;3.63;;
17985;SDS011;9118;48.122;11.546;2023-08-01T02:44:30;3.63;;;3.33;;
17985;SDS011;9118;48.122;11.546;2023-08-01T02:47:02;5.23;;;3.70;;
17985;SDS011;9118;48.122;11.546;2023-08-01T02:49:29;3.92;;;3.38;;
17985;SDS011;9118;48.122;11.546;2023-08-01T02:51:56;3.87;;;3.40;;
17985;SDS011;9118;48.122;11.546;2023-08-01T02:54:23;3.63;;;3.23;;
17985;SDS011;9118;48.122;11.546;2023-08-01T02:56:51;4.60;;;3.60;;
17985;SDS011;9118;48.122;11.546;2023-08-01T02:59:18;4.10;;;3.67;;
17985;SDS011;9118;48.122;11.546;2023-08-01T03:01:45;5.93;;;3.65;;
17985;SDS011;9118;48.122;11.546;2023-08-01T03:04:16;3.92;;;3.53;;
17985;SDS011;9118;48.122;11.546;2023-08-01T03:06:43;5.60;;;3.67;;
17985;SDS011;9118;48.122;11.546;2023-08-01T03:09:10;4.40;;;3.42;;
17985;SDS011;9118;48.122;11.546;2023-08-01T03:11:37;4.80;;;3.60;;
17985;SDS011;9118;48.122;11.546;2023-08-01T03:14:04;5.20;;;3.70;;
17985;SDS011;9118;48.122;11.546;2023-08-01T03:16:34;4.18;;;3.78;;
17985;SDS011;9118;48.122;11.546;2023-08-01T03:19:01;4.50;;;3.42;;
17985;SDS011;9118;48.122;11.546;2023-08-01T03:21:32;4.70;;;3.80;;
17985;SDS011;9118;48.122;11.546;2023-08-01T03:24:00;5.18;;;4.03;;
17985;SDS011;9118;48.122;11.546;2023-08-01T03:26:28;3.37;;;3.07;;
17985;SDS011;9118;48.122;11.546;2023-08-01T03:28:57;5.60;;;3.85;;
17985;SDS011;9118;48.122;11.546;2023-08-01T03:31:26;4.03;;;3.70;;
17985;SDS011;9118;48.122;11.546;2023-08-01T03:34:00;5.17;;;3.47;;
17985;SDS011;9118;48.122;11.546;2023-08-01T03:36:27;4.75;;;3.90;;
17985;SDS011;9118;48.122;11.546;2023-08-01T03:38:55;4.28;;;3.60;;
17985;SDS011;9118;48.122;11.546;2023-08-01T03:41:22;5.38;;;3.90;;
17985;SDS011;9118;48.122;11.546;2023-08-01T03:43:49;4.45;;;3.63;;
17985;SDS011;9118;48.122;11.546;2023-08-01T03:46:17;6.77;;;3.70;;
17985;SDS011;9118;48.122;11.546;2023-08-01T03:48:44;5.07;;;3.80;;
17985;SDS011;9118;48.122;11.546;2023-08-01T03:51:13;9.15;;;4.15;;
17985;SDS011;9118;48.122;11.546;2023-08-01T03:53:43;3.93;;;3.53;;
17985;SDS011;9118;48.122;11.546;2023-08-01T03:56:19;5.47;;;4.10;;
17985;SDS011;9118;48.122;11.546;2023-08-01T03:58:46;6.57;;;4.22;;
17985;SDS011;9118;48.122;11.546;2023-08-01T04:01:13;5.40;;;3.92;;
17985;SDS011;9118;48.122;11.546;2023-08-01T04:03:40;5.40;;;4.00;;
17985;SDS011;9118;48.122;11.546;2023-08-01T04:06:07;4.60;;;4.00;;
17985;SDS011;9118;48.122;11.546;2023-08-01T04:08:36;6.78;;;3.97;;
17985;SDS011;9118;48.122;11.546;2023-08-01T04:11:03;5.53;;;3.90;;
17985;SDS011;9118;48.122;11.546;2023-08-01T04:13:37;4.85;;;4.28;;
17985;SDS011;9118;48.122;11.546;2023-08-01T04:16:05;7.10;;;4.10;;
17985;SDS011;9118;48.122;11.546;2023-08-01T04:18:31;5.47;;;4.43;;
17985;SDS011;9118;48.122;11.546;2023-08-01T04:20:59;4.77;;;4.20;;
17985;SDS011;9118;48.122;11.546;2023-08-01T04:23:26;6.03;;;4.77;;
17985;SDS011;9118;48.122;11.546;2023-08-01T04:25:53;7.33;;;4.23;;
17985;SDS011;9118;48.122;11.546;2023-08-01T04:28:23;5.23;;;4.20;;
17985;SDS011;9118;48.122;11.546;2023-08-01T04:30:51;8.63;;;4.67;;
17985;SDS011;9118;48.122;11.546;2023-08-01T04:33:20;7.30;;;4.70;;
17985;SDS011;9118;48.122;11.546;2023-08-01T04:35:47;5.47;;;4.20;;
17985;SDS011;9118;48.122;11.546;2023-08-01T04:38:15;6.13;;;4.60;;
17985;SDS011;9118;48.122;11.546;2023-08-01T04:40:43;6.10;;;4.90;;
17985;SDS011;9118;48.122;11.546;2023-08-01T04:43:11;5.77;;;4.50;;
17985;SDS011;9118;48.122;11.546;2023-08-01T04:45:38;6.25;;;4.38;;
17985;SDS011;9118;48.122;11.546;2023-08-01T04:48:06;4.93;;;4.43;;
17985;SDS011;9118;48.122;11.546;2023-08-01T04:50:33;5.87;;;4.60;;
17985;SDS011;9118;48.122;11.546;2023-08-01T04:53:01;7.47;;;4.63;;
17985;SDS011;9118;48.122;11.546;2023-08-01T04:55:28;5.13;;;4.55;;
17985;SDS011;9118;48.122;11.546;2023-08-01T04:57:55;8.00;;;5.57;;
17985;SDS011;9118;48.122;11.546;2023-08-01T05:00:22;7.87;;;5.10;;
17985;SDS011;9118;48.122;11.546;2023-08-01T05:02:49;8.10;;;5.37;;
17985;SDS011;9118;48.122;11.546;2023-08-01T05:05:18;7.13;;;5.07;;
17985;SDS011;9118;48.122;11.546;2023-08-01T05:07:45;6.80;;;4.63;;
17985;SDS011;9118;48.122;11.546;2023-08-01T05:10:12;8.60;;;4.53;;
17985;SDS011;9118;48.122;11.546;2023-08-01T05:12:39;7.33;;;4.93;;
17985;SDS011;9118;48.122;11.546;2023-08-01T05:15:07;6.73;;;5.00;;
17985;SDS011;9118;48.122;11.546;2023-08-01T05:17:34;6.38;;;4.82;;
17985;SDS011;9118;48.122;11.546;2023-08-01T05:20:01;6.20;;;4.93;;
17985;SDS011;9118;48.122;11.546;2023-08-01T05:22:31;6.05;;;5.45;;
17985;SDS011;9118;48.122;11.546;2023-08-01T05:24:58;8.03;;;5.20;;
17985;SDS011;9118;48.122;11.546;2023-08-01T05:27:25;6.23;;;5.00;;
17985;SDS011;9118;48.122;11.546;2023-08-01T05:29:57;7.30;;;4.83;;
17985;SDS011;9118;48.122;11.546;2023-08-01T05:32:24;9.17;;;4.90;;
17985;SDS011;9118;48.122;11.546;2023-08-01T05:40:11;8.00;;;4.80;;
17985;SDS011;9118;48.122;11.546;2023-08-01T05:42:40;6.10;;;5.05;;
17985;SDS011;9118;48.122;11.546;2023-08-01T05:45:08;6.55;;;5.05;;
17985;SDS011;9118;48.122;11.546;2023-08-01T05:47:39;7.68;;;4.80;;
17985;SDS011;9118;48.122;11.546;2023-08-01T05:50:10;6.25;;;4.53;;
17985;SDS011;9118;48.122;11.546;2023-08-01T05:52:37;6.73;;;4.13;;
17985;SDS011;9118;48.122;11.546;2023-08-01T05:55:05;7.17;;;4.80;;
17985;SDS011;9118;48.122;11.546;2023-08-01T05:57:34;9.30;;;5.03;;
17985;SDS011;9118;48.122;11.546;2023-08-01T06:00:01;8.35;;;5.30;;
17985;SDS011;9118;48.122;11.546;2023-08-01T06:02:28;7.93;;;4.70;;
17985;SDS011;9118;48.122;11.546;2023-08-01T06:04:55;7.60;;;4.60;;
17985;SDS011;9118;48.122;11.546;2023-08-01T06:07:22;6.13;;;4.87;;
17985;SDS011;9118;48.122;11.546;2023-08-01T06:09:50;6.27;;;4.60;;
17985;SDS011;9118;48.122;11.546;2023-08-01T06:12:17;5.95;;;4.93;;
17985;SDS011;9118;48.122;11.546;2023-08-01T06:14:46;7.50;;;4.60;;
17985;SDS011;9118;48.122;11.546;2023-08-01T06:17:15;6.00;;;4.93;;
17985;SDS011;9118;48.122;11.546;2023-08-01T06:19:43;6.43;;;4.10;;
17985;SDS011;9118;48.122;11.546;2023-08-01T06:22:13;5.13;;;4.07;;
17985;SDS011;9118;48.122;11.546;2023-08-01T06:24:40;6.20;;;4.20;;
17985;SDS011;9118;48.122;11.546;2023-08-01T06:27:24;5.53;;;3.83;;
17985;SDS011;9118;48.122;11.546;2023-08-01T06:29:53;4.50;;;3.97;;
17985;SDS011;9118;48.122;11.546;2023-08-01T06:32:20;5.45;;;4.30;;
17985;SDS011;9118;48.122;11.546;2023-08-01T06:34:50;5.53;;;4.43;;
17985;SDS011;9118;48.122;11.546;2023-08-01T06:37:20;6.63;;;4.53;;
17985;SDS011;9118;48.122;11.546;2023-08-01T06:39:47;7.03;;;4.47;;
17985;SDS011;9118;48.122;11.546;2023-08-01T06:42:14;7.47;;;4.90;;
17985;SDS011;9118;48.122;11.546;2023-08-01T06:44:46;5.60;;;4.47;;
17985;SDS011;9118;48.122;11.546;2023-08-01T06:47:17;5.40;;;4.73;;
17985;SDS011;9118;48.122;11.546;2023-08-01T06:49:48;4.75;;;4.25;;
17985;SDS011;9118;48.122;11.546;2023-08-01T06:52:16;5.95;;;3.97;;
17985;SDS011;9118;48.122;11.546;2023-08-01T06:54:44;6.55;;;4.70;;
17985;SDS011;9118;48.122;11.546;2023-08-01T06:57:16;5.03;;;4.27;;
17985;SDS011;9118;48.122;11.546;2023-08-01T06:59:43;6.30;;;4.10;;
17985;SDS011;9118;48.122;11.546;2023-08-01T07:02:11;6.80;;;3.93;;
17985;SDS011;9118;48.122;11.546;2023-08-01T07:04:42;8.23;;;4.50;;
17985;SDS011;9118;48.122;11.546;2023-08-01T07:07:09;5.77;;;3.90;;
17985;SDS011;9118;48.122;11.546;2023-08-01T07:09:36;4.47;;;3.87;;
17985;SDS011;9118;48.122;11.546;2023-08-01T07:12:18;3.73;;;3.37;;
17985;SDS011;9118;48.122;11.546;2023-08-01T07:14:45;4.25;;;3.55;;
17985;SDS011;9118;48.122;11.546;2023-08-01T07:17:13;7.25;;;5.05;;
17985;SDS011;9118;48.122;11.546;2023-08-01T07:19:48;5.30;;;4.10;;
17985;SDS011;9118;48.122;11.546;2023-08-01T07:22:15;4.85;;;4.00;;
17985;SDS011;9118;48.122;11.546;2023-08-01T07:24:51;5.00;;;3.80;;
17985;SDS011;9118;48.122;11.546;2023-08-01T07:27:19;4.60;;;4.20;;
17985;SDS011;9118;48.122;11.546;2023-08-01T07:29:48;5.90;;;3.93;;
17985;SDS011;9118;48.122;11.546;2023-08-01T07:32:18;4.47;;;3.73;;
17985;SDS011;9118;48.122;11.546;2023-08-01T07:34:49;5.53;;;4.03;;
17985;SDS011;9118;48.122;11.546;2023-08-01T07:37:20;6.87;;;3.83;;
17985;SDS011;9118;48.122;11.546;2023-08-01T07:39:50;5.78;;;3.55;;
17985;SDS011;9118;48.122;11.546;2023-08-01T07:42:19;3.57;;;3.10;;
17985;SDS011;9118;48.122;11.546;2023-08-01T07:44:47;3.87;;;3.40;;
17985;SDS011;9118;48.122;11.546;2023-08-01T07:47:16;5.63;;;4.27;;
17985;SDS011;9118;48.122;11.546;2023-08-01T07:49:43;3.90;;;3.50;;
17985;SDS011;9118;48.122;11.546;2023-08-01T07:52:12;5.23;;;3.90;;
17985;SDS011;9118;48.122;11.546;2023-08-01T07:54:40;4.78;;;4.28;;
17985;SDS011;9118;48.122;11.546;2023-08-01T07:57:07;7.20;;;3.90;;
17985;SDS011;9118;48.122;11.546;2023-08-01T07:59:35;6.53;;;4.20;;
17985;SDS011;9118;48.122;11.546;2023-08-01T08:02:05;6.37;;;4.73;;
17985;SDS011;9118;48.122;11.546;2023-08-01T08:04:33;6.50;;;4.50;;
17985;SDS011;9118;48.122;11.546;2023-08-01T08:07:00;5.43;;;4.17;;
17985;SDS011;9118;48.122;11.546;2023-08-01T08:09:29;4.57;;;4.00;;
17985;SDS011;9118;48.122;11.546;2023-08-01T08:12:02;6.35;;;4.13;;
17985;SDS011;9118;48.122;11.546;2023-08-01T08:14:35;5.07;;;4.18;;
17985;SDS011;9118;48.122;11.546;2023-08-01T08:17:06;5.05;;;3.90;;
17985;SDS011;9118;48.122;11.546;2023-08-01T08:19:33;4.40;;;3.60;;
17985;SDS011;9118;48.122;11.546;2023-08-01T08:22:04;4.10;;;3.38;;
17985;SDS011;9118;48.122;11.546;2023-08-01T08:24:35;4.13;;;3.60;;
17985;SDS011;9118;48.122;11.546;2023-08-01T08:27:02;4.68;;;3.50;;
17985;SDS011;9118;48.122;11.546;2023-08-01T08:29:30;5.67;;;3.60;;
17985;SDS011;9118;48.122;11.546;2023-08-01T08:32:00;4.07;;;3.58;;
17985;SDS011;9118;48.122;11.546;2023-08-01T08:34:28;6.03;;;4.05;;
17985;SDS011;9118;48.122;11.546;2023-08-01T08:36:55;4.40;;;3.70;;
17985;SDS011;9118;48.122;11.546;2023-08-01T08:39:22;5.37;;;3.97;;
17985;SDS011;9118;48.122;11.546;2023-08-01T08:41:51;4.28;;;3.80;;
17985;SDS011;9118;48.122;11.546;2023-08-01T08:44:19;5.60;;;4.13;;
17985;SDS011;9118;48.122;11.546;2023-08-01T08:46:48;4.82;;;3.95;;
17985;SDS011;9118;48.122;11.546;2023-08-01T08:49:17;6.40;;;4.15;;
17985;SDS011;9118;48.122;11.546;2023-08-01T08:51:46;6.00;;;4.25;;
17985;SDS011;9118;48.122;11.546;2023-08-01T08:54:14;5.57;;;4.55;;
17985;SDS011;9118;48.122;11.546;2023-08-01T08:56:42;6.80;;;4.85;;
17985;SDS011;9118;48.122;11.546;2023-08-01T08:59:13;8.07;;;6.00;;
17985;SDS011;9118;48.122;11.546;2023-08-01T09:01:41;5.65;;;4.22;;
17985;SDS011;9118;48.122;11.546;2023-08-01T09:04:08;4.32;;;3.60;;
17985;SDS011;9118;48.122;11.546;2023-08-01T09:06:37;5.07;;;4.35;;
17985;SDS011;9118;48.122;11.546;2023-08-01T09:09:14;4.60;;;3.90;;
17985;SDS011;9118;48.122;11.546;2023-08-01T09:11:42;6.43;;;5.30;;
17985;SDS011;9118;48.122;11.546;2023-08-01T09:14:15;4.50;;;3.90;;
17985;SDS011;9118;48.122;11.546;2023-08-01T09:16:43;5.17;;;4.00;;
17985;SDS011;9118;48.122;11.546;2023-08-01T09:19:11;4.95;;;4.05;;
17985;SDS011;9118;48.122;11.546;2023-08-01T09:21:43;5.03;;;4.13;;
17985;SDS011;9118;48.122;11.546;2023-08-01T09:24:10;5.43;;;3.80;;
17985;SDS011;9118;48.122;11.546;2023-08-01T09:26:42;5.80;;;4.20;;
17985;SDS011;9118;48.122;11.546;2023-08-01T09:29:15;6.20;;;4.75;;
17985;SDS011;9118;48.122;11.546;2023-08-01T09:31:43;7.35;;;4.53;;
17985;SDS011;9118;48.122;11.546;2023-08-01T09:34:18;6.87;;;4.60;;
17985;SDS011;9118;48.122;11.546;2023-08-01T09:36:56;7.35;;;4.70;;
17985;SDS011;9118;48.122;11.546;2023-08-01T09:39:24;6.30;;;4.30;;
17985;SDS011;9118;48.122;11.546;2023-08-01T09:41:55;7.47;;;4.70;;
17985;SDS011;9118;48.122;11.546;2023-08-01T09:47:42;4.70;;;4.17;;
17985;SDS011;9118;48.122;11.546;2023-08-01T09:50:10;7.30;;;5.10;;
17985;SDS011;9118;48.122;11.546;2023-08-01T09:52:40;6.57;;;4.17;;
17985;SDS011;9118;48.122;11.546;2023-08-01T09:55:07;4.47;;;3.90;;
17985;SDS011;9118;48.122;11.546;2023-08-01T09:57:36;5.97;;;3.73;;
17985;SDS011;9118;48.122;11.546;2023-08-01T10:00:07;4.28;;;3.88;;
17985;SDS011;9118;48.122;11.546;2023-08-01T10:02:35;5.28;;;3.80;;
17985;SDS011;9118;48.122;11.546;2023-08-01T10:05:07;5.53;;;3.83;;
17985;SDS011;9118;48.122;11.546;2023-08-01T10:07:37;7.15;;;4.07;;
17985;SDS011;9118;48.122;11.546;2023-08-01T10:10:08;5.07;;;4.00;;
17985;SDS011;9118;48.122;11.546;2023-08-01T10:12:37;7.30;;;3.90;;
17985;SDS011;9118;48.122;11.546;2023-08-01T10:15:09;7.18;;;3.70;;
17985;SDS011;9118;48.122;11.546;2023-08-01T10:17:37;6.30;;;4.03;;
17985;SDS011;9118;48.122;11.546;2023-08-01T10:20:07;4.72;;;3.75;;
17985;SDS011;9118;48.122;11.546;2023-08-01T10:22:37;5.35;;;3.95;;
17985;SDS011;9118;48.122;11.546;2023-08-01T10:25:06;4.53;;;3.80;;
17985;SDS011;9118;48.122;11.546;2023-08-01T10:27:37;4.82;;;3.67;;
17985;SDS011;9118;48.122;11.546;2023-08-01T10:30:06;5.03;;;3.60;;
17985;SDS011;9118;48.122;11.546;2023-08-01T10:32:35;6.27;;;3.80;;
17985;SDS011;9118;48.122;11.546;2023-08-01T10:35:04;4.70;;;3.70;;
17985;SDS011;9118;48.122;11.546;2023-08-01T10:37:41;5.07;;;3.78;;
17985;SDS011;9118;48.122;11.546;2023-08-01T10:40:09;6.37;;;3.77;;
17985;SDS011;9118;48.122;11.546;2023-08-01T10:42:39;8.25;;;3.50;;
17985;SDS011;9118;48.122;11.546;2023-08-01T10:45:08;5.17;;;3.50;;
17985;SDS011;9118;48.122;11.546;2023-08-01T10:47:46;4.77;;;3.40;;
17985;SDS011;9118;48.122;11.546;2023-08-01T10:50:14;4.95;;;3.72;;
17985;SDS011;9118;48.122;11.546;2023-08-01T10:52:43;4.37;;;3.47;;
17985;SDS011;9118;48.122;11.546;2023-08-01T10:55:11;5.50;;;3.97;;
17985;SDS011;9118;48.122;11.546;2023-08-01T10:57:39;4.13;;;3.58;;
17985;SDS011;9118;48.122;11.546;2023-08-01T11:00:15;6.63;;;3.60;;
17985;SDS011;9118;48.122;11.546;2023-08-01T11:02:48;5.03;;;3.72;;
17985;SDS011;9118;48.122;11.546;2023-08-01T11:05:17;3.90;;;3.50;;
17985;SDS011;9118;48.122;11.546;2023-08-01T11:07:54;4.77;;;3.60;;
17985;SDS011;9118;48.122;11.546;2023-08-01T11:10:23;3.35;;;3.05;;
17985;SDS011;9118;48.122;11.546;2023-08-01T11:12:51;4.15;;;2.92;;
17985;SDS011;9118;48.122;11.546;2023-08-01T11:15:22;3.53;;;2.50;;
17985;SDS011;9118;48.122;11.546;2023-08-01T11:17:50;4.57;;;2.80;;
17985;SDS011;9118;48.122;11.546;2023-08-01T11:20:19;2.58;;;2.38;;
17985;SDS011;9118;48.122;11.546;2023-08-01T11:22:50;3.77;;;2.57;;
17985;SDS011;9118;48.122;11.546;2023-08-01T11:25:32;2.50;;;2.30;;
17985;SDS011;9118;48.122;11.546;2023-08-01T11:28:03;2.93;;;2.60;;
17985;SDS011;9118;48.122;11.546;2023-08-01T11:30:32;3.00;;;2.70;;
17985;SDS011;9118;48.122;11.546;2023-08-01T11:33:00;2.47;;;2.27;;
17985;SDS011;9118;48.122;11.546;2023-08-01T11:35:28;3.43;;;2.63;;
17985;SDS011;9118;48.122;11.546;2023-08-01T11:37:56;3.33;;;2.70;;
17985;SDS011;9118;48.122;11.546;2023-08-01T11:40:24;3.92;;;2.80;;
17985;SDS011;9118;48.122;11.546;2023-08-01T11:42:55;2.80;;;2.60;;
17985;SDS011;9118;48.122;11.546;2023-08-01T11:45:23;3.53;;;3.03;;
17985;SDS011;9118;48.122;11.546;2023-08-01T11:47:50;3.63;;;3.10;;
17985;SDS011;9118;48.122;11.546;2023-08-01T11:50:20;3.30;;;3.00;;
17985;SDS011;9118;48.122;11.546;2023-08-01T11:52:48;3.57;;;2.70;;
17985;SDS011;9118;48.122;11.546;2023-08-01T11:55:22;4.18;;;3.03;;
17985;SDS011;9118;48.122;11.546;2023-08-01T11:57:53;3.70;;;3.00;;
17985;SDS011;9118;48.122;11.546;2023-08-01T12:00:21;3.90;;;3.03;;
17985;SDS011;9118;48.122;11.546;2023-08-01T12:02:49;3.53;;;2.95;;
17985;SDS011;9118;48.122;11.546;2023-08-01T12:05:23;3.97;;;3.25;;
17985;SDS011;9118;48.122;11.546;2023-08-01T12:07:50;5.80;;;3.00;;
17985;SDS011;9118;48.122;11.546;2023-08-01T12:10:17;6.77;;;3.67;;
17985;SDS011;9118;48.122;11.546;2023-08-01T12:12:46;4.17;;;2.77;;
17985;SDS011;9118;48.122;11.546;2023-08-01T12:15:14;3.23;;;2.93;;
17985;SDS011;9118;48.122;11.546;2023-08-01T12:17:41;3.30;;;2.57;;
17985;SDS011;9118;48.122;11.546;2023-08-01T12:20:09;4.93;;;2.77;;
17985;SDS011;9118;48.122;11.546;2023-08-01T12:22:38;4.00;;;3.60;;
17985;SDS011;9118;48.122;11.546;2023-08-01T12:25:08;4.30;;;3.30;;
17985;SDS011;9118;48.122;11.546;2023-08-01T12:27:35;3.83;;;2.97;;
17985;SDS011;9118;48.122;11.546;2023-08-01T12:30:04;4.47;;;2.80;;
17985;SDS011;9118;48.122;11.546;2023-08-01T12:32:32;3.97;;;2.80;;
17985;SDS011;9118;48.122;11.546;2023-08-01T12:35:00;3.27;;;2.70;;
17985;SDS011;9118;48.122;11.546;2023-08-01T12:37:27;3.63;;;2.50;;
17985;SDS011;9118;48.122;11.546;2023-08-01T12:39:54;2.87;;;2.57;;
17985;SDS011;9118;48.122;11.546;2023-08-01T12:42:22;3.80;;;2.73;;
17985;SDS011;9118;48.122;11.546;2023-08-01T12:44:49;3.30;;;2.63;;
17985;SDS011;9118;48.122;11.546;2023-08-01T12:47:17;4.43;;;2.77;;
17985;SDS011;9118;48.122;11.546;2023-08-01T12:49:44;4.17;;;2.77;;
17985;SDS011;9118;48.122;11.546;2023-08-01T12:52:21;2.80;;;2.47;;
17985;SDS011;9118;48.122;11.546;2023-08-01T12:54:49;3.33;;;2.33;;
17985;SDS011;9118;48.122;11.546;2023-08-01T12:57:18;2.40;;;2.20;;
17985;SDS011;9118;48.122;11.546;2023-08-01T12:59:45;2.53;;;2.13;;
17985;SDS011;9118;48.122;11.546;2023-08-01T13:02:13;3.70;;;2.65;;
17985;SDS011;9118;48.122;11.546;2023-08-01T13:04:42;3.03;;;2.42;;
17985;SDS011;9118;48.122;11.546;2023-08-01T13:07:09;2.90;;;2.33;;
17985;SDS011;9118;48.122;11.546;2023-08-01T13:09:36;3.97;;;2.33;;
17985;SDS011;9118;48.122;11.546;2023-08-01T13:12:03;3.03;;;2.67;;
17985;SDS011;9118;48.122;11.546;2023-08-01T13:14:31;2.97;;;2.57;;
17985;SDS011;9118;48.122;11.546;2023-08-01T13:17:01;2.67;;;2.20;;
17985;SDS011;9118;48.122;11.546;2023-08-01T13:19:30;3.57;;;2.80;;
17985;SDS011;9118;48.122;11.546;2023-08-01T13:21:58;2.95;;;2.65;;
17985;SDS011;9118;48.122;11.546;2023-08-01T13:24:26;2.85;;;2.58;;
17985;SDS011;9118;48.122;11.546;2023-08-01T13:27:07;2.90;;;2.60;;
17985;SDS011;9118;48.122;11.546;2023-08-01T13:29:37;2.88;;;2.60;;
17985;SDS011;9118;48.122;11.546;2023-08-01T13:32:09;3.40;;;2.40;;
17985;SDS011;9118;48.122;11.546;2023-08-01T13:34:36;4.28;;;2.90;;
17985;SDS011;9118;48.122;11.546;2023-08-01T13:37:04;3.53;;;3.03;;
17985;SDS011;9118;48.122;11.546;2023-08-01T13:39:34;4.32;;;3.15;;
17985;SDS011;9118;48.122;11.546;2023-08-01T13:42:01;10.55;;;2.78;;
17985;SDS011;9118;48.122;11.546;2023-08-01T13:44:30;2.75;;;2.50;;
17985;SDS011;9118;48.122;11.546;2023-08-01T13:46:58;3.33;;;2.70;;
17985;SDS011;9118;48.122;11.546;2023-08-01T13:49:25;3.25;;;2.95;;
17985;SDS011;9118;48.122;11.546;2023-08-01T13:51:52;3.00;;;2.70;;
17985;SDS011;9118;48.122;11.546;2023-08-01T13:54:20;4.57;;;2.85;;
17985;SDS011;9118;48.122;11.546;2023-08-01T13:56:48;2.90;;;2.55;;
17985;SDS011;9118;48.122;11.546;2023-08-01T13:59:14;3.80;;;2.73;;
17985;SDS011;9118;48.122;11.546;2023-08-01T14:01:42;3.07;;;2.63;;
17985;SDS011;9118;48.122;11.546;2023-08-01T14:04:09;4.15;;;2.88;;
17985;SDS011;9118;48.122;11.546;2023-08-01T14:06:41;3.17;;;2.80;;
17985;SDS011;9118;48.122;11.546;2023-08-01T14:09:08;2.88;;;2.33;;
17985;SDS011;9118;48.122;11.546;2023-08-01T14:11:39;2.97;;;2.73;;
17985;SDS011;9118;48.122;11.546;2023-08-01T14:14:06;2.58;;;2.38;;
17985;SDS011;9118;48.122;11.546;2023-08-01T14:16:33;4.25;;;2.33;;
17985;SDS011;9118;48.122;11.546;2023-08-01T14:19:00;3.03;;;2.55;;
17985;SDS011;9118;48.122;11.546;2023-08-01T14:21:28;4.78;;;3.03;;
17985;SDS011;9118;48.122;11.546;2023-08-01T14:23:55;2.72;;;2.53;;
17985;SDS011;9118;48.122;11.546;2023-08-01T14:26:23;4.53;;;2.67;;
17985;SDS011;9118;48.122;11.546;2023-08-01T14:28:51;3.10;;;2.80;;
17985;SDS011;9118;48.122;11.546;2023-08-01T14:31:21;3.53;;;2.87;;
17985;SDS011;9118;48.122;11.546;2023-08-01T14:33:48;4.20;;;2.97;;
17985;SDS011;9118;48.122;11.546;2023-08-01T14:36:15;3.70;;;3.13;;
17985;SDS011;9118;48.122;11.546;2023-08-01T14:38:44;3.37;;;2.77;;
17985;SDS011;9118;48.122;11.546;2023-08-01T14:41:15;2.73;;;2.43;;
17985;SDS011;9118;48.122;11.546;2023-08-01T14:43:44;2.97;;;2.00;;
17985;SDS011;9118;48.122;11.546;2023-08-01T14:46:12;2.10;;;1.83;;
17985;SDS011;9118;48.122;11.546;2023-08-01T14:48:40;2.43;;;1.80;;
17985;SDS011;9118;48.122;11.546;2023-08-01T14:51:09;2.92;;;1.67;;
17985;SDS011;9118;48.122;11.546;2023-08-01T14:53:38;2.40;;;1.88;;
17985;SDS011;9118;48.122;11.546;2023-08-01T14:56:05;4.30;;;3.08;;
17985;SDS011;9118;48.122;11.546;2023-08-01T14:58:35;2.50;;;2.10;;
17985;SDS011;9118;48.122;11.546;2023-08-01T15:01:09;2.53;;;2.00;;
17985;SDS011;9118;48.122;11.546;2023-08-01T15:03:39;2.33;;;1.80;;
17985;SDS011;9118;48.122;11.546;2023-08-01T15:06:07;1.70;;;1.60;;